Box Springs, California
Current Conditions -  °F | °C
As of 3:53 AM on Friday 24 Oct 2014 (Local Time) from KRAL Reporting Station
Clear Clear  
Wind Chill: 62°   Ceiling: Unl
Heat Index: 62°   Visibility: 10mi
Dew Point: 46°   Wind: 0mph
Humidity: 56%   Direction: NA
Pressure: 29.98"   Gusts: NA
Location:  33.9841°N, 117.329°W
Report Text: KRAL 241053Z AUTO 00000KT 10SM CLR 17/08 A2998 RMK AO2 SLP135 T01670078
Loading
Personal Weather Stations






























Interactive Weather Map
Tropical Storm Tracking
New forecast layout! Learn more

10-Day Weather Forecast

Advertisements
Track Severe Weather on mobile